Time;durP1;ratioP1;P1;durP2;ratioP2;P2;SDS_P1;SDS_P2;PMS_P1;PMS_P2;Temp;Humidity;BMP_temperature;BMP_pressure;BME280_temperature;BME280_humidity;BME280_pressure;Samples;Min_cycle;Max_cycle;Signal;HPM_P1;HPM_P2
2023/05/16 00:00:10;;;;;;;;;;;;;;;30.87;76.28;101067.69;5119213;27;69343;-42
2023/05/16 00:02:41;;;;;;;;;;;;;;;30.78;74.01;101077.91;5120403;27;66476;-40
2023/05/16 00:05:15;;;;;;;;;;;;;;;30.73;74.15;101092.09;5123860;27;71090;-41
2023/05/16 00:07:46;;;;;;;;;;;;;;;30.73;73.53;101102.94;5119213;27;66388;-41
2023/05/16 00:10:17;;;;;;;;;;;;;;;30.75;73.34;101099.16;5125736;27;70391;-41
2023/05/16 00:12:50;;;;;;;;;;;;;;;30.75;73.05;101110.81;5120077;27;65623;-40
2023/05/16 00:15:22;;;;;;;;;;;;;;;30.79;73.22;101100.41;5127330;27;70285;-44
2023/05/16 00:17:52;;;;;;;;;;;;;;;30.81;72.42;101103.75;5099674;27;66306;-40
2023/05/16 00:20:23;;;;;;;;;;;;;;;30.85;72.82;101107.72;5123252;27;70696;-41
2023/05/16 00:22:54;;;;;;;;;;;;;;;30.86;72.93;101106.66;5120267;27;66565;-41
2023/05/16 00:25:24;;;;;;;;;;;;;;;30.84;72.80;101106.03;5083809;27;70042;-42
2023/05/16 00:27:55;;;;;;;;;;;;;;;30.88;72.71;101104.56;5101597;27;65610;-40
2023/05/16 00:30:25;;;;;;;;;;;;;;;30.99;72.94;101103.88;5069577;27;69880;-40
2023/05/16 00:32:55;;;;;;;;;;;;;;;31.06;73.16;101099.25;5122727;27;65871;-42
2023/05/16 00:35:26;;;;;;;;;;;;;;;31.12;72.57;101103.81;5116734;27;69551;-40
2023/05/16 00:37:56;;;;;;;;;;;;;;;31.14;72.94;101104.41;5120968;27;66857;-41
2023/05/16 00:40:26;;;;;;;;;;;;;;;31.20;73.31;101091.06;5120723;27;70117;-42
2023/05/16 00:42:57;;;;;;;;;;;;;;;31.26;73.29;101095.59;5104069;27;65410;-39
2023/05/16 00:45:27;;;;;;;;;;;;;;;31.24;71.80;101100.44;5120211;27;70887;-41
2023/05/16 00:47:58;;;;;;;;;;;;;;;31.23;71.20;101101.47;5128729;27;66425;-41
2023/05/16 00:50:29;;;;;;;;;;;;;;;31.24;70.92;101108.56;5120037;27;70308;-41
2023/05/16 00:52:59;;;;;;;;;;;;;;;31.23;70.82;101104.16;5130221;27;66133;-42
2023/05/16 00:55:30;;;;;;;;;;;;;;;31.25;70.18;101099.38;5106467;27;70392;-42
2023/05/16 00:58:01;;;;;;;;;;;;;;;31.27;70.25;101105.41;5121471;27;65736;-41
2023/05/16 01:00:32;;;;;;;;;;;;;;;31.28;69.56;101107.06;5117424;27;69136;-41
2023/05/16 01:03:04;;;;;;;;;;;;;;;31.29;69.47;101111.44;5108583;27;65733;-41
2023/05/16 01:05:35;;;;;;;;;;;;;;;31.27;69.32;101108.94;5124437;27;70391;-42
2023/05/16 01:08:06;;;;;;;;;;;;;;;31.30;69.87;101123.94;5108307;27;66687;-42
2023/05/16 01:10:49;;;;;;;;;;;;;;;31.12;69.14;101094.84;5103798;27;69515;-42
2023/05/16 01:13:28;;;;;;;;;;;;;;;31.35;68.91;101132.25;5100661;27;65242;-42
2023/05/16 01:16:04;;;;;;;;;;;;;;;31.38;68.87;101131.84;5123729;27;70562;-43
2023/05/16 01:18:41;;;;;;;;;;;;;;;31.39;68.62;101136.22;5113626;27;66353;-42
2023/05/16 01:21:18;;;;;;;;;;;;;;;31.42;68.96;101143.91;5101258;27;69750;-40
2023/05/16 01:24:27;;;;;;;;;;;;;;;31.45;68.35;101146.19;5119076;27;66634;-43
2023/05/16 01:26:59;;;;;;;;;;;;;;;31.46;68.11;101138.91;5102079;27;70708;-42
2023/05/16 01:29:29;;;;;;;;;;;;;;;31.48;67.88;101136.78;5116740;27;65561;-42
2023/05/16 01:32:00;;;;;;;;;;;;;;;31.52;68.03;101138.03;5119503;27;69657;-42
2023/05/16 01:34:30;;;;;;;;;;;;;;;31.52;68.11;101132.59;5123060;27;66947;-41
2023/05/16 01:37:07;;;;;;;;;;;;;;;31.54;67.60;101136.75;5122809;27;70432;-44
2023/05/16 01:39:59;;;;;;;;;;;;;;;31.56;67.96;101131.94;5113781;27;66270;-41
2023/05/16 01:42:43;;;;;;;;;;;;;;;31.59;67.79;101134.22;5121844;27;70008;-43
2023/05/16 01:45:25;;;;;;;;;;;;;;;31.61;67.12;101123.97;5119500;27;66858;-42
2023/05/16 01:48:10;;;;;;;;;;;;;;;31.65;67.22;101131.66;5128276;27;69627;-41
2023/05/16 01:50:57;;;;;;;;;;;;;;;31.66;67.26;101122.50;5132334;27;65761;-41
2023/05/16 01:53:44;;;;;;;;;;;;;;;31.69;67.02;101124.75;5123211;27;70233;-43
2023/05/16 01:56:22;;;;;;;;;;;;;;;31.73;66.58;101129.53;5141675;27;66421;-41
2023/05/16 01:58:54;;;;;;;;;;;;;;;31.75;66.61;101121.16;5122474;27;71162;-41
2023/05/16 02:01:26;;;;;;;;;;;;;;;31.77;66.23;101135.34;5119793;27;65374;-41
2023/05/16 02:03:58;;;;;;;;;;;;;;;31.80;66.20;101134.91;5138418;27;71996;-42
2023/05/16 02:06:29;;;;;;;;;;;;;;;31.84;66.31;101141.53;5092981;27;66361;-41
2023/05/16 02:09:00;;;;;;;;;;;;;;;31.87;66.81;101134.84;5141260;27;69105;-42
2023/05/16 02:11:30;;;;;;;;;;;;;;;31.88;66.16;101134.63;5122709;27;66189;-41
2023/05/16 02:14:02;;;;;;;;;;;;;;;31.93;65.71;101139.41;5139925;27;68601;-41
2023/05/16 02:16:33;;;;;;;;;;;;;;;31.94;65.99;101141.91;5123631;27;66135;-42
2023/05/16 02:19:05;;;;;;;;;;;;;;;31.97;65.44;101141.47;5137105;27;70527;-41
2023/05/16 02:21:38;;;;;;;;;;;;;;;32.00;65.35;101140.19;5121640;27;66002;-41
2023/05/16 02:24:08;;;;;;;;;;;;;;;32.01;65.19;101145.41;5115653;27;70578;-42
2023/05/16 02:26:39;;;;;;;;;;;;;;;32.03;64.96;101143.28;5139917;27;66975;-41
2023/05/16 02:29:09;;;;;;;;;;;;;;;32.05;65.22;101141.19;5140512;27;69854;-42
2023/05/16 02:31:41;;;;;;;;;;;;;;;32.08;64.81;101134.47;5138934;27;66481;-43
2023/05/16 02:34:12;;;;;;;;;;;;;;;32.11;64.70;101135.94;5136447;27;70780;-40
2023/05/16 02:36:43;;;;;;;;;;;;;;;32.13;64.44;101134.66;5132585;27;66591;-43
2023/05/16 02:39:16;;;;;;;;;;;;;;;32.15;64.31;101129.84;5118181;27;70521;-42
2023/05/16 02:41:47;;;;;;;;;;;;;;;32.18;64.40;101129.38;5099137;27;67103;-41
2023/05/16 02:44:17;;;;;;;;;;;;;;;32.19;64.31;101116.66;5142252;27;70493;-44
2023/05/16 02:46:47;;;;;;;;;;;;;;;32.21;64.45;101111.84;5141582;27;66853;-47
2023/05/16 02:49:17;;;;;;;;;;;;;;;32.23;64.39;101112.41;5098709;27;70114;-45
2023/05/16 02:51:49;;;;;;;;;;;;;;;32.24;64.15;101108.66;5071985;27;68016;-41
2023/05/16 02:54:20;;;;;;;;;;;;;;;32.24;63.94;101093.19;5133014;27;71554;-45
2023/05/16 02:56:50;;;;;;;;;;;;;;;32.26;63.79;101090.25;5132438;27;65810;-44
2023/05/16 02:59:21;;;;;;;;;;;;;;;32.27;63.84;101089.22;5132248;27;70523;-43
2023/05/16 03:01:51;;;;;;;;;;;;;;;32.29;63.55;101095.25;5116084;27;66797;-43
2023/05/16 03:04:22;;;;;;;;;;;;;;;32.30;63.78;101091.47;5136277;27;69318;-42
2023/05/16 03:06:53;;;;;;;;;;;;;;;32.31;63.74;101090.41;5123214;27;66261;-42
2023/05/16 03:09:23;;;;;;;;;;;;;;;32.33;63.63;101080.16;5091044;27;68592;-41
2023/05/16 03:11:54;;;;;;;;;;;;;;;32.34;63.60;101079.09;5134863;27;67020;-42
2023/05/16 03:14:25;;;;;;;;;;;;;;;32.36;63.21;101068.84;5121211;27;70772;-41
2023/05/16 03:17:01;;;;;;;;;;;;;;;32.38;63.20;101060.50;5135582;27;65336;-42
2023/05/16 03:19:34;;;;;;;;;;;;;;;32.40;63.26;101059.22;5094899;27;69911;-43
2023/05/16 03:24:58;;;;;;;;;;;;;;;32.44;63.05;101049.53;5125549;27;70357;-41
2023/05/16 03:27:31;;;;;;;;;;;;;;;32.49;62.99;101052.44;5122870;27;65158;-42
2023/05/16 03:30:02;;;;;;;;;;;;;;;32.51;63.05;101054.09;5113286;27;69926;-41
2023/05/16 03:32:33;;;;;;;;;;;;;;;32.51;63.08;101038.63;5141078;27;66132;-44
2023/05/16 03:35:04;;;;;;;;;;;;;;;32.54;62.84;101040.06;5137278;27;69601;-41
2023/05/16 03:37:36;;;;;;;;;;;;;;;32.56;62.65;101056.97;5094337;27;66993;-42
2023/05/16 03:40:07;;;;;;;;;;;;;;;32.57;62.54;101037.72;5138812;27;70138;-42
2023/05/16 03:42:38;;;;;;;;;;;;;;;32.59;62.76;101040.19;5135286;27;65173;-42
2023/05/16 03:45:08;;;;;;;;;;;;;;;32.60;62.56;101047.31;5133992;27;70301;-41
2023/05/16 03:47:39;;;;;;;;;;;;;;;32.61;62.66;101040.81;5135296;27;66521;-45
2023/05/16 03:50:09;;;;;;;;;;;;;;;32.62;62.50;101028.88;5132547;27;70306;-42
2023/05/16 03:52:41;;;;;;;;;;;;;;;32.62;62.48;101023.44;5123651;27;66464;-44
2023/05/16 03:55:13;;;;;;;;;;;;;;;32.63;62.26;101027.84;5120967;27;70344;-42
2023/05/16 03:57:44;;;;;;;;;;;;;;;32.63;62.55;101019.69;5120560;27;66913;-42
2023/05/16 04:00:15;;;;;;;;;;;;;;;32.63;62.29;101008.84;5119484;27;71147;-44
2023/05/16 04:02:46;;;;;;;;;;;;;;;32.64;62.05;100999.59;5121435;27;66236;-43
2023/05/16 04:05:16;;;;;;;;;;;;;;;32.66;62.24;100992.91;5122289;27;69799;-42
2023/05/16 04:07:47;;;;;;;;;;;;;;;32.69;62.27;100997.03;5122284;27;65980;-45
2023/05/16 04:10:17;;;;;;;;;;;;;;;32.69;62.13;100991.59;5124915;27;70532;-43
2023/05/16 04:12:48;;;;;;;;;;;;;;;32.73;62.13;100981.94;5117507;27;65355;-45
2023/05/16 04:15:18;;;;;;;;;;;;;;;32.75;61.83;100968.94;5121355;27;70425;-45
2023/05/16 04:17:49;;;;;;;;;;;;;;;32.78;61.88;100968.47;5104237;27;67226;-43
2023/05/16 04:20:19;;;;;;;;;;;;;;;32.77;61.85;100971.44;5120841;27;71058;-45
2023/05/16 04:22:50;;;;;;;;;;;;;;;32.80;61.81;100966.38;5122309;27;66799;-45
2023/05/16 04:25:21;;;;;;;;;;;;;;;32.84;61.76;100967.56;5118736;27;69834;-44
2023/05/16 04:27:52;;;;;;;;;;;;;;;32.85;61.78;100952.94;5112680;27;65386;-43
2023/05/16 04:30:23;;;;;;;;;;;;;;;32.88;61.80;100948.91;5124055;27;70148;-43
2023/05/16 04:32:53;;;;;;;;;;;;;;;32.88;61.78;100941.59;5106905;27;66348;-42
2023/05/16 04:35:25;;;;;;;;;;;;;;;32.90;61.63;100938.63;5094915;27;70379;-42
2023/05/16 04:37:56;;;;;;;;;;;;;;;32.54;61.52;100871.69;5089999;27;65990;-44
2023/05/16 04:40:27;;;;;;;;;;;;;;;32.93;61.69;100925.41;5120758;27;70799;-42
2023/05/16 04:42:57;;;;;;;;;;;;;;;32.94;61.61;100924.34;5125334;27;66083;-43
2023/05/16 04:45:28;;;;;;;;;;;;;;;32.95;61.72;100914.31;5118182;27;71298;-43
2023/05/16 04:48:00;;;;;;;;;;;;;;;32.98;61.42;100913.84;5139097;27;66286;-42
2023/05/16 04:50:30;;;;;;;;;;;;;;;33.00;61.41;100916.38;5129428;27;69728;-43
2023/05/16 04:53:01;;;;;;;;;;;;;;;33.03;61.32;100918.59;5118584;27;66590;-44
2023/05/16 04:55:32;;;;;;;;;;;;;;;33.04;61.42;100902.09;5107429;27;70821;-44
2023/05/16 04:58:03;;;;;;;;;;;;;;;33.06;61.32;100893.69;5119420;27;66535;-42
2023/05/16 05:00:33;;;;;;;;;;;;;;;33.09;61.24;100890.47;5117143;27;70344;-42
2023/05/16 05:03:04;;;;;;;;;;;;;;;33.09;61.05;100871.47;5119522;27;66872;-44
2023/05/16 05:05:34;;;;;;;;;;;;;;;33.08;60.70;100854.34;5115234;27;70527;-43
2023/05/16 05:08:06;;;;;;;;;;;;;;;33.13;60.73;100856.34;5112561;27;65961;-43
2023/05/16 05:10:37;;;;;;;;;;;;;;;33.15;60.81;100854.22;5124439;27;69922;-43
2023/05/16 05:13:09;;;;;;;;;;;;;;;33.18;60.70;100852.91;5125526;27;66383;-43
2023/05/16 05:15:39;;;;;;;;;;;;;;;33.19;60.88;100852.69;5125866;27;69315;-44
2023/05/16 05:18:10;;;;;;;;;;;;;;;33.21;60.63;100847.84;5122825;27;66925;-42
2023/05/16 05:20:41;;;;;;;;;;;;;;;33.24;60.52;100851.94;5124493;27;69680;-43
2023/05/16 05:23:11;;;;;;;;;;;;;;;33.26;60.75;100860.69;5123200;27;66369;-47
2023/05/16 05:25:42;;;;;;;;;;;;;;;33.29;60.58;100852.06;5124505;27;70122;-43
2023/05/16 05:28:12;;;;;;;;;;;;;;;33.30;60.36;100830.09;5118987;27;66210;-45
2023/05/16 05:30:43;;;;;;;;;;;;;;;33.33;60.33;100835.06;5122362;27;69829;-45
2023/05/16 05:33:15;;;;;;;;;;;;;;;33.34;60.15;100828.53;5119953;27;65720;-43
2023/05/16 05:35:46;;;;;;;;;;;;;;;33.36;60.09;100834.56;5124279;27;69433;-44
2023/05/16 05:38:17;;;;;;;;;;;;;;;33.37;60.14;100841.66;5120188;27;65959;-43
2023/05/16 05:40:48;;;;;;;;;;;;;;;33.40;60.12;100828.66;5121617;27;69968;-45
2023/05/16 05:43:19;;;;;;;;;;;;;;;33.41;59.99;100814.03;5124085;27;66221;-43
2023/05/16 05:45:49;;;;;;;;;;;;;;;33.41;59.76;100808.59;5120616;27;70328;-45
2023/05/16 05:48:20;;;;;;;;;;;;;;;33.43;59.69;100804.53;5124726;27;65833;-43
2023/05/16 05:50:51;;;;;;;;;;;;;;;33.43;59.69;100806.44;5115059;27;69753;-45
2023/05/16 05:53:23;;;;;;;;;;;;;;;33.46;59.51;100803.22;5106604;27;67094;-45
2023/05/16 05:55:54;;;;;;;;;;;;;;;33.48;59.31;100798.38;5120678;27;69746;-44
2023/05/16 05:58:25;;;;;;;;;;;;;;;33.48;59.32;100792.94;5124831;27;66585;-44
2023/05/16 06:00:55;;;;;;;;;;;;;;;33.50;59.25;100796.25;5110878;27;70016;-45
2023/05/16 06:03:26;;;;;;;;;;;;;;;33.51;59.23;100792.47;5110791;27;66495;-43
2023/05/16 06:05:56;;;;;;;;;;;;;;;33.53;59.40;100774.03;5122399;27;69284;-43
2023/05/16 06:08:27;;;;;;;;;;;;;;;33.54;59.09;100767.53;5125355;27;66944;-42
2023/05/16 06:10:57;;;;;;;;;;;;;;;33.54;59.10;100762.94;5104450;27;69794;-42
2023/05/16 06:13:28;;;;;;;;;;;;;;;33.56;59.09;100746.38;5125547;27;65781;-43
2023/05/16 06:15:59;;;;;;;;;;;;;;;33.57;59.05;100737.97;5126522;27;70260;-42
2023/05/16 06:18:29;;;;;;;;;;;;;;;33.58;59.01;100733.34;5130863;27;66955;-45
2023/05/16 06:21:00;;;;;;;;;;;;;;;33.38;59.39;100707.38;5122766;27;70092;-43
2023/05/16 06:23:31;;;;;;;;;;;;;;;33.59;59.04;100737.72;5131160;27;67042;-41
2023/05/16 06:26:02;;;;;;;;;;;;;;;33.61;58.94;100737.50;5129473;27;69584;-42
2023/05/16 06:28:32;;;;;;;;;;;;;;;33.62;59.25;100736.41;5127703;27;67216;-43
2023/05/16 06:31:03;;;;;;;;;;;;;;;33.62;59.03;100729.06;5116826;27;69839;-43
2023/05/16 06:33:33;;;;;;;;;;;;;;;33.63;58.93;100730.75;5130045;27;66805;-44
2023/05/16 06:36:07;;;;;;;;;;;;;;;33.64;58.79;100721.50;5119386;27;70137;-43
2023/05/16 06:38:37;;;;;;;;;;;;;;;33.64;58.84;100726.94;5120793;27;66069;-45
2023/05/16 06:41:08;;;;;;;;;;;;;;;33.66;59.00;100724.00;5123100;27;70509;-44
2023/05/16 06:43:39;;;;;;;;;;;;;;;33.64;58.88;100726.94;5138549;27;66778;-43
2023/05/16 06:46:10;;;;;;;;;;;;;;;33.66;58.85;100724.00;5110273;27;69106;-44
2023/05/16 06:48:40;;;;;;;;;;;;;;;33.65;59.01;100716.88;5129053;27;66502;-42
2023/05/16 06:51:11;;;;;;;;;;;;;;;33.66;58.74;100716.66;5127684;27;69742;-43
2023/05/16 06:53:43;;;;;;;;;;;;;;;33.67;58.94;100710.13;5122591;27;66174;-43
2023/05/16 06:56:13;;;;;;;;;;;;;;;33.65;58.83;100701.38;5131088;27;69974;-43
2023/05/16 06:58:44;;;;;;;;;;;;;;;33.66;58.85;100703.06;5119760;27;67011;-42
2023/05/16 07:01:15;;;;;;;;;;;;;;;33.66;58.96;100697.59;5135199;27;69801;-42
2023/05/16 07:03:46;;;;;;;;;;;;;;;33.66;58.64;100697.59;5123755;27;66365;-41
2023/05/16 07:06:17;;;;;;;;;;;;;;;33.66;58.78;100694.06;5128214;27;69827;-43
2023/05/16 07:08:47;;;;;;;;;;;;;;;33.66;58.74;100680.47;5107176;27;65135;-43
2023/05/16 07:11:18;;;;;;;;;;;;;;;33.67;58.78;100687.56;5112544;27;70177;-41
2023/05/16 07:13:49;;;;;;;;;;;;;;;33.66;59.01;100681.28;5121614;27;66637;-45
2023/05/16 07:16:19;;;;;;;;;;;;;;;33.65;58.84;100667.91;5118336;27;69738;-42
2023/05/16 07:18:51;;;;;;;;;;;;;;;33.65;59.04;100660.56;5121813;27;66351;-43
2023/05/16 07:21:21;;;;;;;;;;;;;;;33.65;59.08;100646.16;5119966;27;70392;-43
2023/05/16 07:23:52;;;;;;;;;;;;;;;33.63;59.06;100640.97;5084302;27;67194;-43
2023/05/16 07:26:22;;;;;;;;;;;;;;;33.63;58.94;100643.69;5120408;27;69362;-44
2023/05/16 07:28:54;;;;;;;;;;;;;;;33.64;59.44;100634.47;5118214;27;66906;-43
2023/05/16 07:31:28;;;;;;;;;;;;;;;33.64;59.16;100629.03;5118559;27;70405;-44
2023/05/16 07:33:58;;;;;;;;;;;;;;;33.64;59.28;100607.25;5126046;27;66041;-45
2023/05/16 07:36:30;;;;;;;;;;;;;;;33.64;59.17;100598.28;5119946;27;71547;-43
2023/05/16 07:39:00;;;;;;;;;;;;;;;33.64;59.17;100596.38;5117417;27;66655;-43
2023/05/16 07:41:31;;;;;;;;;;;;;;;33.64;59.20;100601.81;5119885;27;69787;-45
2023/05/16 07:44:02;;;;;;;;;;;;;;;33.63;59.13;100602.91;5119677;27;66213;-42
2023/05/16 07:46:33;;;;;;;;;;;;;;;33.63;59.27;100613.78;5098611;27;69930;-42
2023/05/16 07:49:05;;;;;;;;;;;;;;;33.65;59.37;100629.84;5137982;27;65805;-42
2023/05/16 07:51:36;;;;;;;;;;;;;;;33.64;59.40;100639.91;5120262;27;70389;-43
2023/05/16 07:54:07;;;;;;;;;;;;;;;33.65;59.40;100657.03;5123644;27;67727;-43
2023/05/16 07:56:38;;;;;;;;;;;;;;;33.65;59.72;100657.84;5121099;27;70622;-42
2023/05/16 07:59:09;;;;;;;;;;;;;;;33.64;59.81;100658.94;5120701;27;67189;-43
2023/05/16 08:01:40;;;;;;;;;;;;;;;33.64;60.27;100660.84;5131972;27;69768;-42
2023/05/16 08:04:13;;;;;;;;;;;;;;;33.59;59.92;100659.66;5119935;27;67256;-42
2023/05/16 08:06:47;;;;;;;;;;;;;;;33.58;60.04;100668.09;5129484;27;70212;-42
2023/05/16 08:09:18;;;;;;;;;;;;;;;33.57;59.74;100659.09;5120035;27;65486;-43
2023/05/16 08:11:49;;;;;;;;;;;;;;;33.58;59.89;100662.66;5129479;27;70070;-43
2023/05/16 08:14:19;;;;;;;;;;;;;;;33.56;60.13;100689.25;5122010;27;66368;-43
2023/05/16 08:16:50;;;;;;;;;;;;;;;33.54;60.14;100683.22;5104219;27;69751;-42
2023/05/16 08:19:20;;;;;;;;;;;;;;;33.53;60.09;100687.84;5125934;27;65993;-43
2023/05/16 08:21:51;;;;;;;;;;;;;;;33.52;60.05;100679.91;5118688;27;70109;-43
2023/05/16 08:24:22;;;;;;;;;;;;;;;33.51;59.89;100686.41;5106764;27;66166;-43
2023/05/16 08:26:53;;;;;;;;;;;;;;;33.50;59.97;100698.34;5125600;27;70425;-42
2023/05/16 08:29:24;;;;;;;;;;;;;;;33.31;60.12;100728.44;5121916;27;66018;-42
2023/05/16 08:31:54;;;;;;;;;;;;;;;33.44;60.34;100770.84;5111199;27;70348;-42
2023/05/16 08:34:25;;;;;;;;;;;;;;;33.41;60.27;100792.25;5121840;27;66686;-44
2023/05/16 08:36:56;;;;;;;;;;;;;;;33.37;60.67;100803.59;5107467;27;70290;-43
2023/05/16 08:39:27;;;;;;;;;;;;;;;33.33;60.34;100818.75;5092981;27;66166;-47
2023/05/16 08:42:04;;;;;;;;;;;;;;;33.28;60.14;100826.78;5120109;27;70157;-45
2023/05/16 08:44:34;;;;;;;;;;;;;;;33.25;59.91;100827.25;5097333;27;65413;-46
2023/05/16 08:47:25;;;;;;;;;;;;;;;33.21;59.56;100836.13;5122783;27;69822;-45
2023/05/16 08:49:57;;;;;;;;;;;;;;;33.18;59.65;100831.97;5115056;27;67431;-44
2023/05/16 08:52:30;;;;;;;;;;;;;;;33.13;59.71;100829.19;5122875;27;70522;-44
2023/05/16 08:55:06;;;;;;;;;;;;;;;33.11;59.57;100820.41;5123267;27;66680;-43
2023/05/16 08:57:40;;;;;;;;;;;;;;;33.06;59.68;100823.03;5124231;27;70306;-44
2023/05/16 09:00:12;;;;;;;;;;;;;;;33.01;59.95;100837.31;5091066;27;66488;-45
2023/05/16 09:02:45;;;;;;;;;;;;;;;33.02;59.76;100846.31;5128896;27;69783;-44
2023/05/16 09:05:16;;;;;;;;;;;;;;;32.97;60.07;100857.84;4999008;27;3552637;-43
2023/05/16 09:07:47;;;;;;;;;;;;;;;32.92;60.13;100855.00;5115766;27;71170;-47
2023/05/16 09:10:18;;;;;;;;;;;;;;;32.87;60.36;100836.66;5118695;27;66107;-45
2023/05/16 09:12:48;;;;;;;;;;;;;;;32.84;60.34;100812.69;5119165;27;70726;-46
2023/05/16 09:15:20;;;;;;;;;;;;;;;32.79;60.36;100788.16;5118988;27;65768;-44
2023/05/16 09:17:51;;;;;;;;;;;;;;;32.76;60.75;100785.88;5120195;27;69846;-44
2023/05/16 09:20:22;;;;;;;;;;;;;;;32.72;60.58;100790.97;5126698;27;66842;-43
2023/05/16 09:22:54;;;;;;;;;;;;;;;32.70;60.99;100786.81;5127379;27;70791;-42
2023/05/16 09:25:28;;;;;;;;;;;;;;;32.66;61.45;100785.66;5131363;27;64983;-43
2023/05/16 09:28:00;;;;;;;;;;;;;;;32.66;62.82;100769.38;5108598;27;69143;-43
2023/05/16 09:30:33;;;;;;;;;;;;;;;32.61;63.71;100771.94;5132737;27;65626;-43
2023/05/16 09:33:06;;;;;;;;;;;;;;;32.53;64.33;100772.28;5123290;27;70362;-43
2023/05/16 09:35:37;;;;;;;;;;;;;;;32.46;64.38;100765.09;5127423;27;65781;-42
2023/05/16 09:38:15;;;;;;;;;;;;;;;32.44;64.92;100778.03;5129480;27;71130;-42
2023/05/16 09:40:46;;;;;;;;;;;;;;;32.38;65.20;100781.69;5132250;27;65630;-42
2023/05/16 09:43:17;;;;;;;;;;;;;;;32.36;65.36;100781.09;5109413;27;69563;-42
2023/05/16 09:45:48;;;;;;;;;;;;;;;32.34;65.74;100785.09;5132314;27;66942;-43
2023/05/16 09:48:20;;;;;;;;;;;;;;;32.32;66.13;100781.78;5131654;27;69923;-45
2023/05/16 09:50:51;;;;;;;;;;;;;;;32.31;65.93;100777.41;5126477;27;66602;-46
2023/05/16 09:53:28;;;;;;;;;;;;;;;32.25;66.48;100774.56;5126903;27;69938;-42
2023/05/16 09:56:06;;;;;;;;;;;;;;;32.26;66.50;100762.66;5128878;27;65675;-42
2023/05/16 09:58:38;;;;;;;;;;;;;;;32.22;66.65;100760.63;5108699;27;70371;-42
2023/05/16 10:01:10;;;;;;;;;;;;;;;32.13;66.50;100743.88;5133498;27;66596;-42
2023/05/16 10:03:42;;;;;;;;;;;;;;;32.21;67.25;100746.25;5127057;27;70450;-41
2023/05/16 10:06:12;;;;;;;;;;;;;;;32.24;66.98;100748.50;5131302;27;66626;-44
2023/05/16 10:08:43;;;;;;;;;;;;;;;32.25;66.90;100741.19;5132545;27;70336;-44
2023/05/16 10:11:16;;;;;;;;;;;;;;;32.24;67.20;100747.66;5116369;27;66656;-42
2023/05/16 10:13:52;;;;;;;;;;;;;;;32.26;66.63;100759.09;5112569;27;69149;-43
2023/05/16 10:16:25;;;;;;;;;;;;;;;32.25;67.36;100768.31;5124371;27;65489;-42
2023/05/16 10:18:56;;;;;;;;;;;;;;;32.26;67.69;100765.38;5135728;27;70208;-42
2023/05/16 10:21:28;;;;;;;;;;;;;;;32.25;67.97;100768.31;5109785;27;66292;-44
2023/05/16 10:24:03;;;;;;;;;;;;;;;32.26;68.10;100780.81;5117105;27;69300;-43
2023/05/16 10:26:34;;;;;;;;;;;;;;;32.26;68.73;100806.09;5135591;27;66663;-42
2023/05/16 10:29:06;;;;;;;;;;;;;;;32.25;68.82;100795.44;5135308;27;70746;-42
2023/05/16 10:31:37;;;;;;;;;;;;;;;32.15;69.05;100796.03;5137803;27;66410;-45
2023/05/16 10:34:09;;;;;;;;;;;;;;;32.07;67.65;100798.22;5139753;27;70325;-44
2023/05/16 10:36:39;;;;;;;;;;;;;;;32.06;67.44;100802.81;5118116;27;66645;-45
2023/05/16 10:39:11;;;;;;;;;;;;;;;32.03;67.25;100803.28;5133408;27;70801;-43
2023/05/16 10:41:44;;;;;;;;;;;;;;;32.01;67.46;100800.81;5136701;27;66925;-44
2023/05/16 10:44:16;;;;;;;;;;;;;;;32.02;67.93;100804.34;5129319;27;69288;-45
2023/05/16 10:46:47;;;;;;;;;;;;;;;31.99;68.07;100799.38;5132681;27;65906;-47
2023/05/16 10:49:21;;;;;;;;;;;;;;;31.99;68.20;100797.50;5134894;27;70025;-43
2023/05/16 10:52:06;;;;;;;;;;;;;;;31.96;69.09;100803.38;5129035;27;66489;-46
2023/05/16 10:54:42;;;;;;;;;;;;;;;31.98;68.49;100804.00;5125785;27;70790;-43
2023/05/16 10:57:20;;;;;;;;;;;;;;;31.97;68.90;100802.31;5125854;27;67055;-46
2023/05/16 10:59:52;;;;;;;;;;;;;;;31.99;68.61;100805.63;5132746;27;70397;-45
2023/05/16 11:02:31;;;;;;;;;;;;;;;31.97;69.63;100815.88;5123787;27;66072;-43
2023/05/16 11:05:02;;;;;;;;;;;;;;;31.97;69.50;100815.88;5128756;27;69094;-45
2023/05/16 11:07:34;;;;;;;;;;;;;;;31.96;69.25;100803.38;5122947;27;66606;-44
2023/05/16 11:10:08;;;;;;;;;;;;;;;31.95;69.47;100798.19;5115033;27;70834;-46
2023/05/16 11:12:51;;;;;;;;;;;;;;;31.94;69.56;100799.25;5129766;27;66801;-46
2023/05/16 11:15:30;;;;;;;;;;;;;;;31.94;69.20;100805.50;5122956;27;70898;-47
2023/05/16 11:18:05;;;;;;;;;;;;;;;31.94;69.16;100802.78;5134889;27;67045;-45
2023/05/16 11:20:37;;;;;;;;;;;;;;;31.93;69.70;100803.00;5121314;27;69809;-43
2023/05/16 11:23:18;;;;;;;;;;;;;;;31.93;69.72;100803.00;5130889;27;66958;-43
2023/05/16 11:25:53;;;;;;;;;;;;;;;31.93;69.51;100803.84;5122547;27;69903;-45
2023/05/16 11:28:27;;;;;;;;;;;;;;;31.92;69.68;100802.19;5125006;27;65572;-43
2023/05/16 11:30:58;;;;;;;;;;;;;;;31.93;69.97;100809.28;5113444;27;70215;-41
2023/05/16 11:33:35;;;;;;;;;;;;;;;31.93;69.55;100812.00;5123463;27;67147;-44
2023/05/16 11:36:07;;;;;;;;;;;;;;;31.91;69.86;100811.38;5127610;27;69154;-45
2023/05/16 11:38:42;;;;;;;;;;;;;;;32.13;71.41;100819.03;5123322;27;66902;-45
2023/05/16 11:41:16;;;;;;;;;;;;;;;32.15;71.76;100827.75;5126898;27;70434;-45
2023/05/16 11:43:46;;;;;;;;;;;;;;;32.12;72.01;100828.22;5119643;27;66671;-44
2023/05/16 11:46:18;;;;;;;;;;;;;;;32.14;72.12;100842.38;5126791;27;69599;-46
2023/05/16 11:48:48;;;;;;;;;;;;;;;32.13;72.03;100844.28;5100237;27;66017;-46
2023/05/16 11:51:19;;;;;;;;;;;;;;;32.09;72.15;100844.94;5125235;27;70992;-43
2023/05/16 11:53:49;;;;;;;;;;;;;;;32.10;72.15;100841.19;5122327;27;67254;-42
2023/05/16 11:56:22;;;;;;;;;;;;;;;32.08;72.46;100844.13;5111106;27;69217;-43
2023/05/16 11:58:53;;;;;;;;;;;;;;;32.09;72.45;100839.53;5120909;27;66708;-45
2023/05/16 12:01:23;;;;;;;;;;;;;;;32.11;72.95;100840.13;5123824;27;70752;-46
2023/05/16 12:03:58;;;;;;;;;;;;;;;32.13;73.40;100838.03;5125737;27;65591;-42
2023/05/16 12:06:30;;;;;;;;;;;;;;;32.16;73.51;100851.13;5118768;27;70316;-45
2023/05/16 12:09:09;;;;;;;;;;;;;;;32.14;73.40;100853.25;5130605;27;67145;-46
2023/05/16 12:11:40;;;;;;;;;;;;;;;32.12;73.30;100866.19;5120523;27;70618;-44
2023/05/16 12:14:11;;;;;;;;;;;;;;;32.14;73.95;100880.38;5130348;27;66256;-44
2023/05/16 12:16:42;;;;;;;;;;;;;;;32.15;73.51;100876.59;5119516;27;70146;-44
2023/05/16 12:19:13;;;;;;;;;;;;;;;32.17;73.06;100888.06;5128305;27;64733;-46
2023/05/16 12:21:43;;;;;;;;;;;;;;;32.12;73.83;100882.47;5122000;27;70068;-45
2023/05/16 12:24:13;;;;;;;;;;;;;;;32.13;75.02;100895.00;5117374;27;66654;-42
2023/05/16 12:26:43;;;;;;;;;;;;;;;32.16;74.91;100897.25;5120133;27;70769;-45
2023/05/16 12:29:14;;;;;;;;;;;;;;;32.13;75.29;100903.16;5126003;27;65910;-46
2023/05/16 12:31:44;;;;;;;;;;;;;;;32.16;75.48;100899.97;5119070;27;69610;-46
2023/05/16 12:34:19;;;;;;;;;;;;;;;32.12;75.18;100901.47;5119054;27;66436;-44
2023/05/16 12:36:51;;;;;;;;;;;;;;;32.11;75.62;100902.53;5127422;27;69743;-46
2023/05/16 12:39:25;;;;;;;;;;;;;;;32.14;75.46;100902.09;5114704;27;67454;-46
2023/05/16 12:41:55;;;;;;;;;;;;;;;32.16;75.52;100905.41;5118377;27;69992;-45
2023/05/16 12:44:29;;;;;;;;;;;;;;;32.13;75.55;100901.25;5117094;27;65517;-45
2023/05/16 12:46:59;;;;;;;;;;;;;;;32.12;75.57;100906.91;5117057;27;70313;-46
2023/05/16 12:49:32;;;;;;;;;;;;;;;32.16;75.64;100916.25;5115813;27;66523;-44
2023/05/16 12:52:04;;;;;;;;;;;;;;;32.13;75.42;100911.28;5129982;27;69248;-46
2023/05/16 12:54:34;;;;;;;;;;;;;;;32.11;75.73;100914.22;5114396;27;66778;-44
2023/05/16 12:57:05;;;;;;;;;;;;;;;32.14;75.43;100910.22;5121380;27;70595;-46
2023/05/16 12:59:36;;;;;;;;;;;;;;;32.11;76.10;100914.22;5116482;27;65095;-45
2023/05/16 13:02:07;;;;;;;;;;;;;;;32.14;76.02;100918.38;5123915;27;70297;-44